createdAt,value
2018-05-16T00:00:16.750Z,9.05
2018-05-16T00:01:19.284Z,10.30
2018-05-16T00:02:21.847Z,9.93
2018-05-16T00:03:25.142Z,9.15
2018-05-16T00:04:27.690Z,8.93
2018-05-16T00:05:30.975Z,8.90
2018-05-16T00:06:34.267Z,9.73
2018-05-16T00:07:36.832Z,9.20
2018-05-16T00:08:39.367Z,9.55
2018-05-16T00:09:41.892Z,9.60
2018-05-16T00:10:44.472Z,9.02
2018-05-16T00:11:46.999Z,9.07
2018-05-16T00:12:49.530Z,9.27
2018-05-16T00:13:52.055Z,9.23
2018-05-16T00:14:54.589Z,8.75
2018-05-16T00:15:57.911Z,9.32
2018-05-16T00:17:00.436Z,8.15
2018-05-16T00:18:03.782Z,8.70
2018-05-16T00:19:06.311Z,8.75
2018-05-16T00:20:08.835Z,9.82
2018-05-16T00:21:11.392Z,9.07
2018-05-16T00:22:13.916Z,9.30
2018-05-16T00:23:16.444Z,8.88
2018-05-16T00:24:19.719Z,8.70
2018-05-16T00:25:22.237Z,9.23
2018-05-16T00:26:24.808Z,8.93
2018-05-16T00:27:27.345Z,8.20
2018-05-16T00:28:29.868Z,9.00
2018-05-16T00:29:32.389Z,8.65
2018-05-16T00:30:34.911Z,9.18
2018-05-16T00:31:37.474Z,8.27
2018-05-16T00:32:39.996Z,8.65
2018-05-16T00:33:42.524Z,8.85
2018-05-16T00:34:45.860Z,8.65
2018-05-16T00:35:48.397Z,9.15
2018-05-16T00:36:50.923Z,8.30
2018-05-16T00:37:53.453Z,8.27
2018-05-16T00:38:55.983Z,8.45
2018-05-16T00:39:59.332Z,8.10
2018-05-16T00:41:01.880Z,8.07
2018-05-16T00:42:04.412Z,8.45
2018-05-16T00:43:06.927Z,8.20
2018-05-16T00:44:09.450Z,8.40
2018-05-16T00:45:12.016Z,8.25
2018-05-16T00:46:14.527Z,8.68
2018-05-16T00:47:17.049Z,8.52
2018-05-16T00:48:19.580Z,8.43
2018-05-16T00:49:22.105Z,7.40
2018-05-16T00:50:24.660Z,8.15
2018-05-16T00:51:31.618Z,9.10
2018-05-16T00:52:34.134Z,8.05
2018-05-16T00:53:36.684Z,8.40
2018-05-16T00:54:39.203Z,7.60
2018-05-16T00:55:41.752Z,8.30
2018-05-16T00:56:45.067Z,8.73
2018-05-16T00:57:47.641Z,9.43
2018-05-16T00:58:50.174Z,8.90
2018-05-16T00:59:53.467Z,8.48
2018-05-16T01:00:55.996Z,8.43
2018-05-16T01:01:58.516Z,8.38
2018-05-16T01:03:01.082Z,9.52
2018-05-16T01:04:03.601Z,9.45
2018-05-16T01:05:06.121Z,9.30
2018-05-16T01:06:08.659Z,8.77
2018-05-16T01:07:11.981Z,8.50
2018-05-16T01:08:14.539Z,10.45
2018-05-16T01:09:17.857Z,9.75
2018-05-16T01:10:20.381Z,9.60
2018-05-16T01:11:22.913Z,9.30
2018-05-16T01:12:26.200Z,9.82
2018-05-16T01:13:29.516Z,9.43
2018-05-16T01:14:32.066Z,10.13
2018-05-16T01:15:34.639Z,10.35
2018-05-16T01:16:37.175Z,11.00
2018-05-16T01:17:39.707Z,11.18
2018-05-16T01:18:42.246Z,10.70
2018-05-16T01:19:44.780Z,11.48
2018-05-16T01:20:48.120Z,10.90
2018-05-16T01:21:50.655Z,11.82
2018-05-16T01:22:53.220Z,12.00
2018-05-16T01:23:55.747Z,11.68
2018-05-16T01:24:58.275Z,13.62
2018-05-16T01:26:00.808Z,12.40
2018-05-16T01:27:04.101Z,12.48
2018-05-16T01:28:06.668Z,12.20
2018-05-16T01:29:09.201Z,12.32
2018-05-16T01:30:11.743Z,13.93
2018-05-16T01:31:14.307Z,12.52
2018-05-16T01:32:16.829Z,12.30
2018-05-16T01:33:19.360Z,12.23
2018-05-16T01:34:21.927Z,12.82
2018-05-16T01:35:24.452Z,13.13
2018-05-16T01:36:26.975Z,11.65
2018-05-16T01:37:30.271Z,12.07
2018-05-16T01:38:33.608Z,12.37
2018-05-16T01:39:36.163Z,11.32
2018-05-16T01:40:38.677Z,12.23
2018-05-16T01:41:41.973Z,12.10
2018-05-16T01:42:45.308Z,11.60
2018-05-16T01:43:47.841Z,11.68
2018-05-16T01:44:50.365Z,12.35
2018-05-16T01:45:52.887Z,12.60
2018-05-16T01:46:55.427Z,13.48
2018-05-16T01:47:57.996Z,12.93
2018-05-16T01:49:12.366Z,12.98
2018-05-16T01:50:14.938Z,12.70
2018-05-16T01:51:17.496Z,14.00
2018-05-16T01:52:20.056Z,13.80
2018-05-16T01:53:23.355Z,11.98
2018-05-16T01:54:25.907Z,13.50
2018-05-16T01:55:28.432Z,14.25
2018-05-16T01:56:31.733Z,13.70
2018-05-16T01:57:35.024Z,13.95
2018-05-16T01:58:37.552Z,13.70
2018-05-16T01:59:40.124Z,13.02
2018-05-16T02:00:42.654Z,13.70
2018-05-16T02:01:45.175Z,13.20
2018-05-16T02:02:48.468Z,12.88
2018-05-16T02:03:51.013Z,13.45
2018-05-16T02:04:53.580Z,13.20
2018-05-16T02:05:56.877Z,13.43
2018-05-16T02:06:59.400Z,12.57
2018-05-16T02:08:01.933Z,12.40
2018-05-16T02:09:04.470Z,11.68
2018-05-16T02:10:07.037Z,13.13
2018-05-16T02:11:10.366Z,11.82
2018-05-16T02:12:12.917Z,11.50
2018-05-16T02:13:15.447Z,12.80
2018-05-16T02:14:18.731Z,13.43
2018-05-16T02:15:22.056Z,12.32
2018-05-16T02:16:24.580Z,12.50
2018-05-16T02:17:27.882Z,13.50
2018-05-16T02:18:30.416Z,11.60
2018-05-16T02:19:32.989Z,11.45
2018-05-16T02:20:36.289Z,12.50
2018-05-16T02:21:39.592Z,12.68
2018-05-16T02:22:42.127Z,12.10
2018-05-16T02:23:44.666Z,11.32
2018-05-16T02:24:47.231Z,12.05
2018-05-16T02:25:49.757Z,11.52
2018-05-16T02:26:52.285Z,12.43
2018-05-16T02:27:54.847Z,12.50
2018-05-16T02:28:57.367Z,12.32
2018-05-16T02:29:59.910Z,13.23
2018-05-16T02:31:03.204Z,12.45
2018-05-16T02:32:05.766Z,12.93
2018-05-16T02:33:08.289Z,12.80
2018-05-16T02:34:10.820Z,14.77
2018-05-16T02:35:13.352Z,13.30
2018-05-16T02:36:16.651Z,14.77
2018-05-16T02:37:19.277Z,15.07
2018-05-16T02:38:21.770Z,13.82
2018-05-16T02:39:25.065Z,15.35
2018-05-16T02:40:27.595Z,15.13
2018-05-16T02:41:30.119Z,15.13
2018-05-16T02:42:32.699Z,14.40
2018-05-16T02:43:35.260Z,14.90
2018-05-16T02:44:37.771Z,14.05
2018-05-16T02:45:40.303Z,13.25
2018-05-16T02:46:42.832Z,13.85
2018-05-16T02:47:45.392Z,13.68
2018-05-16T02:48:47.928Z,13.95
2018-05-16T02:49:50.461Z,13.18
2018-05-16T02:50:52.994Z,14.38
2018-05-16T02:51:55.524Z,14.18
2018-05-16T02:52:58.100Z,15.23
2018-05-16T02:54:00.640Z,13.80
2018-05-16T02:55:03.169Z,13.57
2018-05-16T02:56:05.700Z,14.70
2018-05-16T02:57:08.997Z,15.00
2018-05-16T02:58:12.326Z,14.80
2018-05-16T02:59:14.892Z,14.90
2018-05-16T03:00:17.425Z,15.45
2018-05-16T03:01:19.959Z,14.60
2018-05-16T03:02:22.520Z,15.20
2018-05-16T03:03:25.048Z,16.27
2018-05-16T03:04:27.579Z,15.45
2018-05-16T03:05:30.904Z,15.60
2018-05-16T03:06:33.431Z,15.82
2018-05-16T03:07:36.717Z,15.27
2018-05-16T03:08:40.014Z,15.70
2018-05-16T03:09:42.591Z,16.02
2018-05-16T03:10:45.136Z,15.60
2018-05-16T03:11:47.670Z,16.42
2018-05-16T03:12:50.197Z,15.98
2018-05-16T03:13:52.731Z,15.48
2018-05-16T03:14:56.057Z,17.33
2018-05-16T03:15:58.628Z,15.75
2018-05-16T03:17:01.154Z,17.17
2018-05-16T03:18:04.453Z,16.48
2018-05-16T03:19:06.981Z,17.62
2018-05-16T03:20:09.515Z,16.92
2018-05-16T03:21:12.101Z,17.33
2018-05-16T03:22:14.637Z,18.33
2018-05-16T03:23:17.171Z,18.37
2018-05-16T03:24:19.703Z,18.20
2018-05-16T03:25:22.220Z,17.75
2018-05-16T03:26:24.818Z,18.27
2018-05-16T03:27:27.345Z,19.40
2018-05-16T03:28:29.909Z,18.80
2018-05-16T03:29:32.431Z,18.87
2018-05-16T03:30:34.960Z,17.83
2018-05-16T03:31:37.491Z,19.23
2018-05-16T03:32:40.783Z,19.40
2018-05-16T03:33:44.109Z,19.60
2018-05-16T03:34:46.637Z,21.45
2018-05-16T03:35:49.167Z,20.08
2018-05-16T03:36:51.723Z,21.15
2018-05-16T03:37:55.753Z,20.20
2018-05-16T03:38:59.094Z,21.30
2018-05-16T03:40:01.621Z,20.45
2018-05-16T03:41:04.151Z,22.08
2018-05-16T03:42:06.672Z,22.85
2018-05-16T03:43:09.204Z,21.85
2018-05-16T03:44:12.540Z,21.37
2018-05-16T03:45:15.069Z,22.58
2018-05-16T03:46:17.619Z,22.48
2018-05-16T03:47:20.912Z,23.60
2018-05-16T03:48:24.208Z,23.70
2018-05-16T03:49:26.776Z,23.27
2018-05-16T03:50:29.294Z,24.45
2018-05-16T03:51:31.825Z,25.40
2018-05-16T03:52:34.356Z,23.05
2018-05-16T03:53:37.645Z,23.23
2018-05-16T03:54:40.978Z,24.30
2018-05-16T03:55:43.506Z,24.90
2018-05-16T03:56:46.040Z,22.50
2018-05-16T03:59:43.958Z,22.35
2018-05-16T04:00:58.155Z,22.87
2018-05-16T04:02:12.689Z,22.08
2018-05-16T04:03:26.729Z,21.73
2018-05-16T04:04:29.255Z,20.65
2018-05-16T04:05:31.824Z,21.40
2018-05-16T04:06:34.352Z,18.90
2018-05-16T04:07:37.636Z,20.50
2018-05-16T04:08:40.919Z,19.90
2018-05-16T04:09:44.206Z,21.25
2018-05-16T04:10:47.557Z,21.92
2018-05-16T04:11:50.087Z,21.42
2018-05-16T04:12:52.621Z,22.02
2018-05-16T04:13:55.161Z,21.30
2018-05-16T04:14:57.816Z,21.33
2018-05-16T04:16:00.392Z,22.15
2018-05-16T04:17:02.951Z,22.60
2018-05-16T04:18:05.480Z,22.77
2018-05-16T04:19:08.003Z,22.15
2018-05-16T04:20:10.532Z,23.50
2018-05-16T04:21:13.113Z,22.52
2018-05-16T04:22:15.639Z,23.75
2018-05-16T04:23:18.184Z,24.00
2018-05-16T04:24:21.478Z,24.20
2018-05-16T04:25:24.003Z,24.17
2018-05-16T04:26:26.568Z,24.02
2018-05-16T04:27:29.108Z,24.60
2018-05-16T04:28:31.632Z,25.40
2018-05-16T04:29:34.919Z,25.05
2018-05-16T04:30:38.214Z,25.10
2018-05-16T04:31:40.777Z,25.30
2018-05-16T04:32:43.389Z,27.25
2018-05-16T04:33:46.619Z,26.87
2018-05-16T04:34:49.918Z,25.83
2018-05-16T04:35:52.447Z,26.35
2018-05-16T04:36:55.011Z,26.10
2018-05-16T04:37:57.534Z,25.75
2018-05-16T04:39:00.096Z,28.12
2018-05-16T04:40:02.627Z,27.33
2018-05-16T04:41:05.916Z,27.25
2018-05-16T04:42:08.456Z,27.42
2018-05-16T04:43:10.988Z,28.60
2018-05-16T04:44:13.543Z,28.40
2018-05-16T04:45:16.077Z,30.05
2018-05-16T04:46:19.371Z,28.48
2018-05-16T04:47:21.903Z,28.62
2018-05-16T04:48:24.437Z,28.23
2018-05-16T04:49:27.011Z,27.55
2018-05-16T04:50:29.536Z,28.38
2018-05-16T04:51:32.082Z,28.48
2018-05-16T04:52:35.416Z,28.33
2018-05-16T04:53:37.935Z,27.80
2018-05-16T04:54:40.456Z,27.58
2018-05-16T04:55:42.991Z,27.90
2018-05-16T04:56:45.533Z,26.45
2018-05-16T04:57:48.868Z,27.92
2018-05-16T04:58:51.398Z,28.05
2018-05-16T04:59:53.932Z,27.20
2018-05-16T05:00:56.497Z,26.90
2018-05-16T05:01:59.044Z,27.73
2018-05-16T05:03:01.615Z,26.95
2018-05-16T05:04:04.188Z,27.67
2018-05-16T05:05:06.742Z,26.30
2018-05-16T05:06:09.300Z,27.95
2018-05-16T05:07:11.843Z,26.70
2018-05-16T05:08:14.400Z,25.98
2018-05-16T05:09:16.965Z,26.42
2018-05-16T05:10:19.519Z,26.08
2018-05-16T05:11:22.815Z,26.40
2018-05-16T05:12:25.347Z,24.17
2018-05-16T05:13:27.863Z,25.00
2018-05-16T05:14:30.424Z,25.35
2018-05-16T05:15:32.944Z,25.23
2018-05-16T05:16:35.495Z,25.27
2018-05-16T05:17:38.033Z,25.02
2018-05-16T05:18:40.612Z,24.10
2018-05-16T05:19:43.135Z,23.98
2018-05-16T05:20:46.432Z,23.80
2018-05-16T05:21:49.003Z,24.17
2018-05-16T05:22:51.567Z,24.20
2018-05-16T05:23:54.153Z,23.85
2018-05-16T05:24:57.420Z,24.85
2018-05-16T05:25:59.959Z,23.30
2018-05-16T05:27:03.270Z,23.08
2018-05-16T05:28:05.833Z,23.85
2018-05-16T05:29:08.403Z,27.48
2018-05-16T05:30:10.946Z,25.77
2018-05-16T05:31:14.245Z,26.45
2018-05-16T05:32:17.539Z,26.55
2018-05-16T05:33:20.068Z,27.67
2018-05-16T05:34:22.634Z,26.33
2018-05-16T05:35:25.163Z,25.90
2018-05-16T05:36:27.696Z,25.33
2018-05-16T05:37:30.230Z,26.00
2018-05-16T05:38:32.792Z,26.08
2018-05-16T05:39:35.311Z,29.08
2018-05-16T05:40:37.877Z,26.42
2018-05-16T05:41:40.400Z,27.05
2018-05-16T05:42:42.942Z,24.80
2018-05-16T05:43:45.505Z,27.25
2018-05-16T05:44:48.039Z,25.17
2018-05-16T05:45:50.564Z,25.40
2018-05-16T05:46:53.126Z,24.95
2018-05-16T05:47:55.659Z,26.60
2018-05-16T05:48:58.233Z,26.50
2018-05-16T05:50:00.756Z,25.05
2018-05-16T05:51:04.165Z,24.58
2018-05-16T05:52:06.729Z,25.92
2018-05-16T05:53:09.265Z,25.05
2018-05-16T05:54:12.559Z,25.55
2018-05-16T05:55:15.092Z,26.25
2018-05-16T05:56:17.651Z,25.80
2018-05-16T05:57:20.184Z,23.27
2018-05-16T05:58:22.708Z,25.90
2018-05-16T05:59:26.014Z,24.23
2018-05-16T06:00:28.549Z,26.12
2018-05-16T06:01:31.892Z,25.08
2018-05-16T06:02:34.416Z,25.70
2018-05-16T06:03:37.719Z,25.10
2018-05-16T06:04:40.239Z,24.95
2018-05-16T06:05:42.758Z,23.73
2018-05-16T06:06:45.335Z,25.25
2018-05-16T06:07:47.864Z,24.00
2018-05-16T06:08:51.157Z,24.67
2018-05-16T06:09:54.454Z,24.30
2018-05-16T06:10:56.984Z,26.23
2018-05-16T06:11:59.566Z,25.48
2018-05-16T06:13:02.865Z,24.85
2018-05-16T06:14:05.397Z,26.15
2018-05-16T06:15:07.928Z,26.40
2018-05-16T06:16:10.459Z,25.33
2018-05-16T06:17:13.029Z,25.27
2018-05-16T06:18:15.560Z,25.52
2018-05-16T06:19:18.092Z,24.00
2018-05-16T06:20:20.617Z,26.12
2018-05-16T06:21:23.918Z,20.42
2018-05-16T06:22:26.503Z,29.58
2018-05-16T06:23:29.115Z,25.00
2018-05-16T06:24:31.639Z,26.52
2018-05-16T06:25:34.176Z,25.90
2018-05-16T06:26:36.712Z,26.75
2018-05-16T06:27:39.237Z,26.30
2018-05-16T06:28:41.804Z,27.62
2018-05-16T06:29:44.343Z,27.52
2018-05-16T06:30:46.876Z,25.88
2018-05-16T06:31:49.443Z,26.70
2018-05-16T06:32:52.057Z,26.55
2018-05-16T06:33:54.517Z,25.77
2018-05-16T06:34:57.054Z,27.40
2018-05-16T06:36:00.339Z,27.23
2018-05-16T06:37:02.907Z,26.73
2018-05-16T06:38:06.198Z,26.58
2018-05-16T06:39:09.572Z,36.70
2018-05-16T06:40:12.079Z,34.50
2018-05-16T06:41:14.644Z,28.95
2018-05-16T06:42:17.168Z,27.08
2018-05-16T06:43:20.463Z,27.00
2018-05-16T06:44:23.034Z,32.83
2018-05-16T06:45:25.572Z,30.10
2018-05-16T06:46:28.113Z,29.23
2018-05-16T06:47:30.639Z,31.50
2018-05-16T06:48:33.181Z,31.42
2018-05-16T06:49:36.509Z,30.80
2018-05-16T06:50:39.044Z,30.25
2018-05-16T06:51:42.471Z,30.17
2018-05-16T06:52:45.005Z,29.27
2018-05-16T06:53:47.540Z,29.75
2018-05-16T06:54:50.106Z,29.10
2018-05-16T06:55:52.635Z,29.12
2018-05-16T06:56:55.168Z,29.70
2018-05-16T06:57:57.728Z,31.80
2018-05-16T06:59:01.024Z,29.37
2018-05-16T07:00:03.549Z,30.15
2018-05-16T07:01:06.073Z,30.77
2018-05-16T07:02:08.600Z,31.10
2018-05-16T07:03:11.925Z,30.62
2018-05-16T07:04:14.455Z,29.75
2018-05-16T07:05:17.744Z,30.92
2018-05-16T07:06:21.048Z,28.87
2018-05-16T07:07:23.581Z,30.08
2018-05-16T07:08:26.910Z,28.65
2018-05-16T07:09:29.487Z,29.95
2018-05-16T07:10:32.017Z,30.37
2018-05-16T07:11:35.312Z,32.45
2018-05-16T07:12:37.839Z,31.10
2018-05-16T07:13:40.369Z,31.62
2018-05-16T07:14:42.920Z,29.00
2018-05-16T07:15:45.446Z,30.77
2018-05-16T07:16:47.968Z,30.95
2018-05-16T07:17:50.502Z,30.55
2018-05-16T07:18:53.031Z,28.92
2018-05-16T07:19:55.604Z,31.05
2018-05-16T07:20:58.136Z,28.52
2018-05-16T07:22:00.660Z,28.35
2018-05-16T07:23:03.952Z,27.13
2018-05-16T07:24:06.515Z,28.02
2018-05-16T07:25:09.839Z,29.00
2018-05-16T07:26:12.360Z,30.10
2018-05-16T07:27:15.671Z,25.85
2018-05-16T07:28:18.195Z,27.50
2018-05-16T07:29:20.726Z,27.90
2018-05-16T07:30:23.287Z,26.90
2018-05-16T07:31:25.818Z,26.35
2018-05-16T07:32:28.385Z,27.48
2018-05-16T07:33:30.953Z,27.77
2018-05-16T07:34:33.489Z,26.20
2018-05-16T07:35:36.835Z,25.98
2018-05-16T07:36:39.377Z,24.65
2018-05-16T07:37:41.905Z,24.73
2018-05-16T07:38:44.435Z,24.20
2018-05-16T07:39:46.973Z,24.10
2018-05-16T07:40:49.532Z,24.42
2018-05-16T07:41:52.083Z,25.30
2018-05-16T07:42:55.415Z,25.83
2018-05-16T07:43:57.944Z,24.75
2018-05-16T07:45:00.513Z,25.02
2018-05-16T07:46:03.035Z,26.50
2018-05-16T07:47:05.579Z,24.48
2018-05-16T07:48:08.137Z,24.05
2018-05-16T07:49:10.672Z,26.95
2018-05-16T07:50:13.981Z,25.40
2018-05-16T07:51:16.613Z,23.83
2018-05-16T07:52:19.104Z,24.05
2018-05-16T07:53:21.671Z,24.80
2018-05-16T07:54:24.217Z,24.83
2018-05-16T07:55:27.525Z,26.17
2018-05-16T07:56:30.062Z,25.50
2018-05-16T07:57:33.356Z,26.45
2018-05-16T07:58:36.683Z,25.58
2018-05-16T07:59:39.206Z,24.08
2018-05-16T08:00:42.544Z,21.80
2018-05-16T08:01:45.072Z,23.25
2018-05-16T08:02:47.637Z,23.58
2018-05-16T08:03:50.189Z,23.65
2018-05-16T08:06:01.620Z,24.08
2018-05-16T08:07:04.165Z,24.05
2018-05-16T08:08:06.700Z,23.08
2018-05-16T08:09:10.030Z,23.98
2018-05-16T08:10:12.560Z,22.37
2018-05-16T08:11:15.149Z,22.65
2018-05-16T08:12:17.711Z,22.50
2018-05-16T08:13:20.229Z,24.65
2018-05-16T08:14:22.785Z,23.02
2018-05-16T08:15:25.327Z,23.75
2018-05-16T08:16:27.856Z,23.02
2018-05-16T08:17:31.144Z,23.75
2018-05-16T08:18:33.685Z,25.12
2018-05-16T08:19:36.311Z,22.35
2018-05-16T08:20:38.849Z,20.83
2018-05-16T08:21:41.467Z,22.65
2018-05-16T08:22:43.991Z,21.48
2018-05-16T08:23:46.525Z,20.27
2018-05-16T08:24:49.809Z,20.65
2018-05-16T08:25:53.196Z,21.80
2018-05-16T08:26:56.525Z,22.60
2018-05-16T08:27:59.048Z,21.12
2018-05-16T08:29:02.957Z,21.40
2018-05-16T08:30:06.248Z,20.35
2018-05-16T08:31:08.897Z,21.15
2018-05-16T08:32:12.239Z,20.73
2018-05-16T08:33:14.765Z,21.33
2018-05-16T08:34:18.074Z,21.95
2018-05-16T08:35:20.595Z,20.12
2018-05-16T08:36:23.910Z,21.42
2018-05-16T08:37:26.475Z,20.88
2018-05-16T08:38:28.996Z,19.77
2018-05-16T08:39:31.572Z,20.33
2018-05-16T08:40:34.103Z,20.95
2018-05-16T08:41:36.635Z,20.50
2018-05-16T08:42:39.179Z,18.73
2018-05-16T08:43:42.463Z,21.42
2018-05-16T08:44:45.795Z,17.87
2018-05-16T08:45:48.321Z,18.75
2018-05-16T08:46:51.612Z,19.12
2018-05-16T08:47:54.916Z,18.55
2018-05-16T08:48:57.448Z,18.27
2018-05-16T08:50:00.776Z,19.40
2018-05-16T08:51:03.340Z,19.33
2018-05-16T08:52:05.900Z,18.12
2018-05-16T08:53:08.426Z,18.27
2018-05-16T08:54:11.725Z,18.67
2018-05-16T08:55:15.055Z,18.55
2018-05-16T08:56:17.580Z,18.90
2018-05-16T08:57:20.885Z,19.60
2018-05-16T08:58:23.420Z,18.70
2018-05-16T08:59:26.722Z,17.23
2018-05-16T09:00:29.291Z,18.12
2018-05-16T09:01:31.840Z,18.50
2018-05-16T09:02:35.133Z,18.75
2018-05-16T09:03:38.431Z,18.87
2018-05-16T09:04:40.992Z,17.95
2018-05-16T09:05:43.516Z,18.27
2018-05-16T09:06:46.050Z,19.35
2018-05-16T09:07:48.628Z,20.33
2018-05-16T09:08:51.156Z,20.17
2018-05-16T09:09:53.694Z,19.67
2018-05-16T09:10:56.223Z,20.85
2018-05-16T09:11:58.768Z,21.00
2018-05-16T09:13:01.331Z,21.37
2018-05-16T09:14:03.855Z,19.80
2018-05-16T09:15:06.377Z,21.62
2018-05-16T09:16:08.911Z,21.87
2018-05-16T09:17:12.267Z,20.00
2018-05-16T09:18:14.804Z,18.80
2018-05-16T09:19:17.395Z,19.45
2018-05-16T09:20:19.875Z,20.02
2018-05-16T09:21:23.223Z,21.62
2018-05-16T09:22:25.756Z,22.05
2018-05-16T09:23:28.287Z,22.10
2018-05-16T09:24:30.825Z,19.45
2018-05-16T09:25:33.356Z,18.95
2018-05-16T09:26:35.913Z,19.23
2018-05-16T09:27:38.442Z,20.95
2018-05-16T09:28:40.981Z,18.45
2018-05-16T09:29:43.507Z,18.90
2018-05-16T09:30:46.075Z,18.52
2018-05-16T09:31:48.651Z,18.55
2018-05-16T09:32:51.195Z,17.42
2018-05-16T09:33:54.497Z,18.80
2018-05-16T09:34:57.029Z,19.33
2018-05-16T09:35:59.557Z,19.20
2018-05-16T09:37:02.118Z,20.35
2018-05-16T09:38:04.649Z,28.83
2018-05-16T09:39:07.948Z,19.67
2018-05-16T09:40:10.494Z,20.95
2018-05-16T09:41:13.793Z,17.27
2018-05-16T09:42:16.358Z,18.02
2018-05-16T09:43:18.926Z,18.40
2018-05-16T09:44:21.476Z,17.37
2018-05-16T09:45:24.772Z,16.75
2018-05-16T09:46:28.070Z,17.65
2018-05-16T09:47:30.603Z,17.50
2018-05-16T09:48:33.932Z,15.45
2018-05-16T09:49:36.467Z,19.67
2018-05-16T09:50:39.774Z,20.23
2018-05-16T09:51:42.319Z,17.62
2018-05-16T09:52:45.625Z,18.77
2018-05-16T09:53:48.203Z,17.75
2018-05-16T09:54:50.732Z,18.20
2018-05-16T09:55:54.036Z,17.73
2018-05-16T09:56:56.569Z,17.10
2018-05-16T09:57:59.096Z,16.87
2018-05-16T09:59:01.659Z,16.40
2018-05-16T10:00:04.190Z,17.00
2018-05-16T10:01:07.499Z,16.90
2018-05-16T10:02:10.026Z,17.20
2018-05-16T10:03:13.320Z,15.95
2018-05-16T10:04:15.876Z,16.73
2018-05-16T10:05:18.467Z,17.73
2018-05-16T10:06:20.996Z,16.90
2018-05-16T10:07:23.525Z,17.35
2018-05-16T10:08:26.064Z,17.80
2018-05-16T10:09:28.625Z,17.15
2018-05-16T10:10:31.175Z,18.25
2018-05-16T10:11:34.473Z,18.25
2018-05-16T10:12:37.784Z,16.98
2018-05-16T10:13:40.314Z,17.75
2018-05-16T10:14:43.656Z,17.95
2018-05-16T10:15:46.176Z,18.23
2018-05-16T10:16:48.724Z,18.02
2018-05-16T10:17:52.039Z,19.25
2018-05-16T10:18:54.581Z,19.05
2018-05-16T10:19:57.925Z,20.12
2018-05-16T10:21:00.463Z,19.98
2018-05-16T10:22:02.989Z,19.75
2018-05-16T10:23:06.280Z,18.37
2018-05-16T10:24:09.585Z,16.62
2018-05-16T10:25:12.151Z,17.02
2018-05-16T10:26:14.747Z,17.80
2018-05-16T10:27:18.000Z,16.85
2018-05-16T10:28:20.539Z,17.02
2018-05-16T10:29:23.076Z,17.58
2018-05-16T10:30:25.644Z,18.55
2018-05-16T10:31:28.177Z,16.75
2018-05-16T10:32:30.708Z,17.58
2018-05-16T10:33:34.013Z,16.92
2018-05-16T10:34:36.640Z,18.65
2018-05-16T10:35:39.127Z,17.65
2018-05-16T10:36:42.453Z,17.60
2018-05-16T10:37:44.987Z,18.37
2018-05-16T10:38:48.267Z,17.70
2018-05-16T10:39:51.559Z,16.58
2018-05-16T10:40:54.858Z,18.73
2018-05-16T10:41:57.417Z,17.70
2018-05-16T10:42:59.949Z,18.45
2018-05-16T10:44:02.481Z,17.95
2018-05-16T10:45:05.010Z,16.02
2018-05-16T10:46:07.538Z,16.83
2018-05-16T10:47:10.104Z,16.65
2018-05-16T10:48:12.643Z,60.00
2018-05-16T10:49:15.202Z,19.55
2018-05-16T10:50:17.737Z,36.25
2018-05-16T10:51:21.023Z,19.85
2018-05-16T10:52:23.547Z,35.03
2018-05-16T10:53:26.075Z,36.28
2018-05-16T10:54:28.656Z,18.10
2018-05-16T10:55:31.181Z,16.85
2018-05-16T10:56:34.476Z,16.87
2018-05-16T10:57:37.007Z,17.50
2018-05-16T10:58:39.540Z,17.30
2018-05-16T10:59:42.103Z,16.35
2018-05-16T11:00:44.664Z,16.40
2018-05-16T11:01:47.191Z,15.52
2018-05-16T11:02:50.485Z,14.73
2018-05-16T11:03:53.032Z,15.90
2018-05-16T11:04:55.593Z,15.20
2018-05-16T11:05:58.124Z,16.10
2018-05-16T11:07:00.682Z,15.63
2018-05-16T11:08:03.215Z,15.00
2018-05-16T11:09:06.505Z,15.00
2018-05-16T11:10:09.836Z,13.68
2018-05-16T11:11:12.358Z,15.05
2018-05-16T11:12:14.879Z,16.02
2018-05-16T11:13:17.413Z,15.77
2018-05-16T11:14:19.952Z,17.23
2018-05-16T11:15:23.282Z,16.23
2018-05-16T11:16:25.808Z,17.70
2018-05-16T11:17:28.340Z,16.77
2018-05-16T11:18:30.888Z,18.85
2018-05-16T11:19:33.412Z,16.08
2018-05-16T11:20:36.051Z,15.27
2018-05-16T11:21:38.656Z,14.82
2018-05-16T11:22:41.222Z,15.50
2018-05-16T11:23:43.757Z,15.35
2018-05-16T11:24:47.088Z,16.55
2018-05-16T11:25:49.630Z,16.58
2018-05-16T11:26:52.157Z,16.87
2018-05-16T11:27:54.684Z,15.68
2018-05-16T11:28:57.224Z,14.87
2018-05-16T11:29:59.784Z,15.02
2018-05-16T11:31:03.105Z,15.95
2018-05-16T11:32:05.627Z,14.95
2018-05-16T11:33:08.920Z,14.87
2018-05-16T11:34:11.491Z,14.50
2018-05-16T11:35:14.056Z,13.73
2018-05-16T11:36:16.592Z,13.55
2018-05-16T11:37:19.137Z,13.52
2018-05-16T11:38:21.671Z,13.13
2018-05-16T11:39:24.200Z,13.93
2018-05-16T11:40:27.540Z,14.13
2018-05-16T11:41:30.065Z,13.18
2018-05-16T11:42:33.359Z,13.60
2018-05-16T11:43:35.914Z,14.35
2018-05-16T11:44:39.211Z,13.27
2018-05-16T11:45:41.768Z,12.63
2018-05-16T11:46:44.296Z,13.82
2018-05-16T11:47:46.822Z,13.70
2018-05-16T11:48:49.391Z,12.85
2018-05-16T11:49:51.952Z,12.93
2018-05-16T11:50:54.489Z,12.70
2018-05-16T11:51:57.837Z,14.07
2018-05-16T11:53:00.382Z,12.60
2018-05-16T11:54:03.145Z,13.13
2018-05-16T11:55:06.965Z,12.90
2018-05-16T11:56:10.258Z,12.15
2018-05-16T11:57:12.891Z,13.20
2018-05-16T11:58:15.419Z,13.10
2018-05-16T11:59:17.976Z,12.20
2018-05-16T12:00:20.511Z,12.52
2018-05-16T12:01:23.043Z,13.77
2018-05-16T12:02:25.695Z,11.50
2018-05-16T12:03:28.992Z,11.88
2018-05-16T12:04:31.524Z,12.50
2018-05-16T12:05:34.065Z,11.73
2018-05-16T12:06:36.592Z,11.40
2018-05-16T12:07:39.150Z,10.57
2018-05-16T12:08:42.454Z,11.80
2018-05-16T12:09:45.016Z,12.02
2018-05-16T12:10:47.541Z,12.00
2018-05-16T12:11:50.073Z,12.20
2018-05-16T12:12:52.607Z,11.60
2018-05-16T12:13:55.137Z,11.50
2018-05-16T12:14:57.747Z,11.88
2018-05-16T12:16:01.050Z,12.70
2018-05-16T12:17:03.588Z,12.73
2018-05-16T12:18:06.115Z,12.15
2018-05-16T12:19:08.640Z,11.15
2018-05-16T12:20:11.221Z,11.43
2018-05-16T12:21:13.752Z,12.02
2018-05-16T12:22:16.289Z,11.30
2018-05-16T12:23:18.815Z,12.20
2018-05-16T12:24:21.336Z,11.65
2018-05-16T12:25:24.672Z,11.35
2018-05-16T12:26:27.205Z,10.90
2018-05-16T12:27:29.736Z,11.05
2018-05-16T12:28:32.268Z,11.05
2018-05-16T12:29:34.801Z,11.32
2018-05-16T12:30:37.366Z,10.50
2018-05-16T12:31:39.943Z,10.20
2018-05-16T12:32:42.953Z,10.52
2018-05-16T12:33:45.485Z,9.63
2018-05-16T12:34:48.011Z,9.80
2018-05-16T12:35:50.577Z,9.65
2018-05-16T12:36:53.107Z,10.23
2018-05-16T12:37:55.683Z,10.20
2018-05-16T12:38:58.209Z,10.40
2018-05-16T12:40:00.740Z,9.30
2018-05-16T12:41:03.279Z,9.88
2018-05-16T12:42:05.805Z,15.35
2018-05-16T12:43:17.146Z,11.38
2018-05-16T12:44:19.666Z,9.30
2018-05-16T12:45:22.184Z,9.00
2018-05-16T12:46:24.712Z,8.45
2018-05-16T12:47:27.228Z,8.18
2018-05-16T12:48:30.563Z,8.48
2018-05-16T12:49:33.101Z,8.15
2018-05-16T12:50:35.621Z,7.93
2018-05-16T12:51:38.145Z,8.07
2018-05-16T12:52:40.669Z,7.60
2018-05-16T12:53:44.001Z,8.43
2018-05-16T12:54:46.530Z,7.78
2018-05-16T12:55:49.936Z,8.45
2018-05-16T12:56:52.393Z,7.97
2018-05-16T12:57:54.916Z,8.35
2018-05-16T12:58:57.484Z,7.60
2018-05-16T13:00:00.110Z,7.78
2018-05-16T13:01:02.631Z,8.57
2018-05-16T13:02:05.165Z,7.47
2018-05-16T13:03:07.736Z,8.20
2018-05-16T13:04:10.303Z,7.90
2018-05-16T13:05:12.824Z,7.70
2018-05-16T13:06:15.345Z,8.30
2018-05-16T13:07:17.870Z,7.90
2018-05-16T13:08:20.399Z,7.85
2018-05-16T13:09:23.821Z,7.50
2018-05-16T13:10:26.343Z,8.57
2018-05-16T13:11:28.907Z,8.77
2018-05-16T13:12:31.403Z,8.18
2018-05-16T13:13:33.923Z,8.40
2018-05-16T13:14:36.492Z,7.22
2018-05-16T13:15:39.017Z,7.12
2018-05-16T13:16:41.545Z,6.70
2018-05-16T13:17:44.091Z,7.78
2018-05-16T13:18:46.608Z,7.50
2018-05-16T13:19:49.185Z,7.35
2018-05-16T13:20:51.708Z,7.70
2018-05-16T13:21:55.011Z,8.02
2018-05-16T13:22:58.308Z,7.10
2018-05-16T13:24:00.840Z,8.30
2018-05-16T13:25:03.420Z,7.53
2018-05-16T13:26:06.719Z,8.07
2018-05-16T13:27:09.245Z,8.25
2018-05-16T13:28:11.782Z,8.98
2018-05-16T13:29:14.307Z,8.52
2018-05-16T13:30:17.625Z,8.80
2018-05-16T13:31:20.209Z,8.02
2018-05-16T13:32:22.730Z,7.82
2018-05-16T13:33:26.021Z,8.98
2018-05-16T13:34:28.625Z,8.20
2018-05-16T13:35:31.917Z,8.65